Southlake's Hourly Summary for Thursday, March 16, 2017
Hour Temp
(f)
RH
(%)
Solar Rad.
(MJ/m2)
Rainfall
(in)
Wind
(mph)
3/16/2017 12:00 AM 55 37 0 0 4.47
3/16/2017 1:00 AM 55 73 0 0 4.36
3/16/2017 2:00 AM 54 92 0 0 5.37
3/16/2017 3:00 AM 54 90 0 0 6.21
3/16/2017 4:00 AM 54 51 0 0 7.1
3/16/2017 5:00 AM 55 87 0 0 6.93
3/16/2017 6:00 AM 56 96 0 0 6.1
3/16/2017 7:00 AM 57 41 0 0 7.1
3/16/2017 8:00 AM 58 83 0.07 0 7.11
3/16/2017 9:00 AM 59 94 0.31 0 6.71
3/16/2017 10:00 AM 60 96 0.44 0 7.16
3/16/2017 11:00 AM 61 82 0.48 0 7.83
3/16/2017 12:00 PM 63 78 0.72 0 8.67
3/16/2017 1:00 PM 66 86 1.17 0 8.05
3/16/2017 2:00 PM 69 94 1.43 0 10.18
3/16/2017 3:00 PM 69 99 1.2 0 10.74
3/16/2017 4:00 PM 70 99 0.88 0 11.3
3/16/2017 5:00 PM 73 96 1.34 0 12.58
3/16/2017 6:00 PM 72 94 0.55 0 10.79
3/16/2017 7:00 PM 70 92 0.1 0 8.89
3/16/2017 8:00 PM 69 99 0 0 7.44
3/16/2017 9:00 PM 69 98 0 0 7.66
3/16/2017 10:00 PM 69 99 0 0 9.34
3/16/2017 11:00 PM 68 99 0 0 9.9
Data Summary 62 85 8.69 0.00 8.00